Skip Navigation Links
NOAA logo - Click to go to the NOAA homepage
NOAA's National Weather Service
Alaska Aviation Weather Unit
  NWS logo - Click to go to the NWS homepage
Left Navbar Graphic     09 AKDT = 17 GMT

   
NOAA is celebrating 200 years of science, service, and stewardship. Visit the NOAA 200th celebration Web site to learn more.
USA.gov is the U.S. Government's official Web portal to all Federal, state and local government Web resources and services.
Facebook
NWS on Facebook

Important Change Regarding the AAWU Web Presence

 

Over the last several months, the AAWU has been working to navigate its webpages to a nationally supported server. Security, as well as other needs, have necessitated the change.  In the process, we have made an effort to enhance the functionality of our website, as well as some of our products. As of June 20, 2017, aawu.arh.noaa.gov will be discontinued. The new AAWU web address is weather.gov/aawu. It is now live and will run in-parallel with the old site until it is discontinued. Please send any feedback or questions regarding the new webpages to nws.ar.aawu.webauthors@noaa.gov.  Thank you for your patience during this time of transition.
AAWU Home :: Display TAF Add Bookmark
TAF PAHO 271141Z 2712/2812 VRB05KT P6SM VCSH FEW080 OVC100
     FM272100 10008KT P6SM VCSH SCT025 OVC050
     FM280400 07008G15KT 6SM -RA BR SCT015 OVC025=

METAR PAHO 271153Z AUTO 00000KT 10SM FEW055 OVC110 04/M01 A3009 RMK SLP189 T00441006 10072 20044 58006 TSNO VIA AUTODIAL= PAHO 271253Z AUTO 03003KT 10SM BKN045 OVC055 06/00 A3009 RMK SLP189 T00560000 TSNO VIA AUTODIAL= METAR PAHO 271353Z AUTO 03003KT 10SM SCT039 BKN055 OVC100 05/00 A3008 RMK SLP186 T00500000 TSNO VIA AUTODIAL= METAR PAHO 271453Z AUTO 04003KT 10SM OVC100 06/01 A3008 RMK SLP184 T00610006 58004 TSNO VIA AUTODIAL= METAR PAHO 271553Z AUTO 06005KT 10SM BKN100 08/01 A3007 RMK SLP183 T00780011 TSNO VIA AUTODIAL= METAR PAHO 271653Z AUTO 09009KT 10SM SCT070 BKN090 BKN110 08/01 A3007 RMK SLP182 T00830011 TSNO VIA AUTODIAL=
 Alaska TAF Map

NOAA's National Weather Service
Alaska Aviation Weather Unit
6930 Sand Lake Road
Anchorage, AK 99502-1845
Disclaimer
Credits
Glossary
Privacy Policy
About Us
Career Opportunities
Contact AAWU Internet Services Site last modified: April, 17th 2012